createdAt,value
2023-09-17T00:00:05.730Z,12.88
2023-09-17T00:02:32.764Z,12.48
2023-09-17T00:04:59.218Z,12.97
2023-09-17T00:07:25.698Z,12.70
2023-09-17T00:09:52.069Z,15.80
2023-09-17T00:12:18.545Z,14.20
2023-09-17T00:14:44.978Z,13.82
2023-09-17T00:17:11.494Z,12.13
2023-09-17T00:19:38.244Z,12.10
2023-09-17T00:22:07.287Z,15.32
2023-09-17T00:24:34.295Z,13.35
2023-09-17T00:27:01.335Z,11.88
2023-09-17T00:29:27.777Z,14.30
2023-09-17T00:31:54.458Z,13.88
2023-09-17T00:34:20.922Z,12.55
2023-09-17T00:36:47.459Z,11.75
2023-09-17T00:39:13.867Z,19.10
2023-09-17T00:41:40.261Z,15.33
2023-09-17T00:44:06.696Z,15.23
2023-09-17T00:46:33.337Z,13.10
2023-09-17T00:49:01.324Z,14.55
2023-09-17T00:51:27.835Z,14.07
2023-09-17T00:53:57.461Z,14.47
2023-09-17T00:56:25.981Z,13.98
2023-09-17T00:58:53.270Z,15.50
2023-09-17T01:01:24.411Z,13.65
2023-09-17T01:03:52.174Z,14.60
2023-09-17T01:06:19.639Z,19.50
2023-09-17T01:08:46.337Z,15.52
2023-09-17T01:11:12.879Z,12.25
2023-09-17T01:13:43.097Z,15.50
2023-09-17T01:16:12.956Z,13.73
2023-09-17T01:18:39.535Z,17.87
2023-09-17T01:21:12.047Z,15.05
2023-09-17T01:23:43.148Z,13.80
2023-09-17T01:26:21.363Z,16.73
2023-09-17T01:28:47.833Z,14.27
2023-09-17T01:31:14.283Z,15.03
2023-09-17T01:33:40.764Z,13.60
2023-09-17T01:36:14.655Z,18.15
2023-09-17T01:38:53.483Z,16.02
2023-09-17T01:41:20.972Z,15.43
2023-09-17T01:43:48.228Z,16.57
2023-09-17T01:46:17.849Z,20.85
2023-09-17T01:48:46.795Z,14.88
2023-09-17T01:51:14.233Z,14.60
2023-09-17T01:53:40.891Z,18.70
2023-09-17T01:56:07.329Z,15.53
2023-09-17T01:58:35.073Z,14.48
2023-09-17T02:01:02.062Z,15.35
2023-09-17T02:03:30.155Z,17.02
2023-09-17T02:05:56.798Z,15.30
2023-09-17T02:08:23.238Z,15.60
2023-09-17T02:10:49.985Z,14.82
2023-09-17T02:13:16.457Z,13.95
2023-09-17T02:15:43.450Z,15.30
2023-09-17T02:18:09.851Z,14.50
2023-09-17T02:20:40.220Z,14.97
2023-09-17T02:23:07.788Z,15.45
2023-09-17T02:25:34.197Z,15.52
2023-09-17T02:28:00.612Z,14.75
2023-09-17T02:30:30.077Z,15.57
2023-09-17T02:32:57.096Z,18.17
2023-09-17T02:35:23.524Z,14.63
2023-09-17T02:37:50.595Z,16.17
2023-09-17T02:40:20.908Z,15.93
2023-09-17T02:42:48.634Z,15.40
2023-09-17T02:45:15.230Z,16.03
2023-09-17T02:47:42.197Z,15.45
2023-09-17T02:50:10.777Z,16.15
2023-09-17T02:52:37.397Z,17.33
2023-09-17T02:55:05.874Z,15.35
2023-09-17T02:57:32.617Z,17.50
2023-09-17T02:59:59.050Z,16.92
2023-09-17T03:02:25.913Z,15.05
2023-09-17T03:04:53.964Z,16.05
2023-09-17T03:07:20.538Z,15.20
2023-09-17T03:09:47.037Z,12.50
2023-09-17T03:12:13.486Z,13.57
2023-09-17T03:14:40.522Z,17.13
2023-09-17T03:17:07.115Z,13.55
2023-09-17T03:19:33.695Z,13.75
2023-09-17T03:22:01.957Z,17.60
2023-09-17T03:24:28.437Z,19.48
2023-09-17T03:26:54.808Z,16.17
2023-09-17T03:29:21.300Z,17.55
2023-09-17T03:31:49.440Z,14.90
2023-09-17T03:34:15.991Z,20.37
2023-09-17T03:36:42.413Z,20.13
2023-09-17T03:39:09.867Z,17.25
2023-09-17T03:41:41.112Z,16.13
2023-09-17T03:44:10.932Z,16.08
2023-09-17T03:46:38.389Z,18.17
2023-09-17T03:49:05.049Z,17.40
2023-09-17T03:51:32.060Z,17.08
2023-09-17T03:54:00.178Z,16.65
2023-09-17T03:56:26.905Z,20.42
2023-09-17T03:58:54.184Z,12.63
2023-09-17T04:01:22.101Z,15.30
2023-09-17T04:06:17.603Z,16.70
2023-09-17T04:08:44.095Z,14.38
2023-09-17T04:11:16.582Z,17.33
2023-09-17T04:13:52.199Z,15.38
2023-09-17T04:16:24.547Z,17.27
2023-09-17T04:18:51.623Z,15.57
2023-09-17T04:21:18.048Z,17.02
2023-09-17T04:23:44.437Z,18.30
2023-09-17T04:26:13.501Z,17.05
2023-09-17T04:28:40.047Z,18.40
2023-09-17T04:31:06.523Z,16.10
2023-09-17T04:33:32.940Z,15.63
2023-09-17T04:36:00.027Z,21.30
2023-09-17T04:38:26.524Z,15.88
2023-09-17T04:40:52.963Z,16.30
2023-09-17T04:43:22.746Z,17.25
2023-09-17T04:45:49.403Z,16.85
2023-09-17T04:48:17.390Z,16.87
2023-09-17T04:50:47.873Z,15.55
2023-09-17T04:53:15.068Z,13.85
2023-09-17T04:55:41.621Z,21.55
2023-09-17T04:58:08.157Z,15.45
2023-09-17T05:00:35.387Z,16.93
2023-09-17T05:03:01.955Z,20.17
2023-09-17T05:05:28.402Z,16.85
2023-09-17T05:07:55.009Z,18.67
2023-09-17T05:10:21.562Z,20.95
2023-09-17T05:12:48.047Z,18.07
2023-09-17T05:15:14.470Z,19.85
2023-09-17T05:17:41.012Z,18.75
2023-09-17T05:20:08.151Z,19.27
2023-09-17T05:22:36.115Z,16.77
2023-09-17T05:25:09.094Z,15.90
2023-09-17T05:27:35.731Z,19.38
2023-09-17T05:30:02.615Z,15.95
2023-09-17T05:32:29.589Z,18.20
2023-09-17T05:35:00.971Z,16.38
2023-09-17T05:37:28.446Z,19.20
2023-09-17T05:39:54.887Z,19.10
2023-09-17T05:42:23.603Z,20.58
2023-09-17T05:44:50.538Z,17.55
2023-09-17T05:47:17.037Z,20.42
2023-09-17T05:49:44.533Z,19.87
2023-09-17T05:52:11.013Z,20.67
2023-09-17T05:54:37.436Z,17.80
2023-09-17T05:57:03.941Z,19.02
2023-09-17T05:59:32.602Z,16.88
2023-09-17T06:02:00.692Z,17.57
2023-09-17T06:04:27.744Z,19.92
2023-09-17T06:06:54.261Z,20.00
2023-09-17T06:09:20.657Z,19.95
2023-09-17T06:11:49.313Z,20.17
2023-09-17T06:14:17.311Z,23.53
2023-09-17T06:16:56.653Z,21.92
2023-09-17T06:19:27.757Z,24.48
2023-09-17T06:21:54.778Z,20.50
2023-09-17T06:24:21.244Z,18.85
2023-09-17T06:26:47.840Z,18.13
2023-09-17T06:29:14.269Z,18.00
2023-09-17T06:31:41.457Z,21.02
2023-09-17T06:34:08.540Z,18.25
2023-09-17T06:36:34.905Z,17.98
2023-09-17T06:39:14.750Z,17.97
2023-09-17T06:41:43.523Z,19.35
2023-09-17T06:44:10.137Z,19.77
2023-09-17T06:46:36.846Z,18.85
2023-09-17T06:49:03.374Z,18.15
2023-09-17T06:51:29.834Z,16.90
2023-09-17T06:53:56.328Z,18.52
2023-09-17T06:56:25.928Z,17.40
2023-09-17T06:58:52.592Z,18.08
2023-09-17T07:01:19.955Z,15.25
2023-09-17T07:03:46.412Z,19.30
2023-09-17T07:06:12.829Z,15.93
2023-09-17T07:08:39.359Z,29.35
2023-09-17T07:11:06.146Z,14.95
2023-09-17T07:13:32.960Z,17.33
2023-09-17T07:15:59.555Z,20.43
2023-09-17T07:18:27.226Z,21.27
2023-09-17T07:20:54.691Z,19.90
2023-09-17T07:23:22.502Z,18.02
2023-09-17T07:25:51.333Z,19.02
2023-09-17T07:28:17.998Z,19.60
2023-09-17T07:30:44.433Z,18.02
2023-09-17T07:33:10.969Z,19.48
2023-09-17T07:35:39.978Z,18.23
2023-09-17T07:38:06.596Z,18.95
2023-09-17T07:40:34.276Z,16.73
2023-09-17T07:43:02.137Z,21.52
2023-09-17T07:45:28.546Z,17.33
2023-09-17T07:47:54.949Z,16.60
2023-09-17T07:50:21.421Z,17.95
2023-09-17T07:52:47.991Z,16.47
2023-09-17T07:55:14.385Z,19.40
2023-09-17T07:57:45.091Z,16.48
2023-09-17T08:00:13.503Z,18.40
2023-09-17T08:02:40.012Z,15.38
2023-09-17T08:05:08.310Z,17.43
2023-09-17T08:07:34.954Z,16.45
2023-09-17T08:10:01.372Z,21.50
2023-09-17T08:12:27.782Z,18.55
2023-09-17T08:14:56.120Z,18.63
2023-09-17T08:17:22.785Z,20.53
2023-09-17T08:19:49.352Z,17.48
2023-09-17T08:22:16.402Z,20.50
2023-09-17T08:24:42.912Z,16.00
2023-09-17T08:27:09.324Z,16.17
2023-09-17T08:29:36.218Z,19.03
2023-09-17T08:32:05.218Z,18.63
2023-09-17T08:34:31.643Z,18.45
2023-09-17T08:36:58.203Z,17.70
2023-09-17T08:39:26.784Z,17.52
2023-09-17T08:41:53.665Z,19.20
2023-09-17T08:44:20.884Z,19.65
2023-09-17T08:46:48.715Z,17.38
2023-09-17T08:49:15.358Z,18.40
2023-09-17T08:51:44.812Z,21.38
2023-09-17T08:54:15.760Z,18.43
2023-09-17T08:56:44.498Z,22.05
2023-09-17T08:59:15.976Z,15.75
2023-09-17T09:01:45.577Z,18.58
2023-09-17T09:04:13.956Z,16.55
2023-09-17T09:06:41.255Z,17.17
2023-09-17T09:09:09.368Z,15.45
2023-09-17T09:11:35.947Z,22.88
2023-09-17T09:14:08.271Z,17.67
2023-09-17T09:16:38.432Z,15.07
2023-09-17T09:19:05.592Z,17.20
2023-09-17T09:21:32.040Z,16.55
2023-09-17T09:23:58.549Z,17.60
2023-09-17T09:26:35.653Z,18.30
2023-09-17T09:29:03.190Z,19.08
2023-09-17T09:31:30.744Z,18.03
2023-09-17T09:34:00.677Z,20.30
2023-09-17T09:36:30.487Z,22.98
2023-09-17T09:39:00.356Z,19.02
2023-09-17T09:41:27.213Z,20.23
2023-09-17T09:43:54.920Z,22.33
2023-09-17T09:46:21.782Z,22.00
2023-09-17T09:48:48.298Z,24.20
2023-09-17T09:51:19.924Z,19.30
2023-09-17T09:53:46.331Z,20.58
2023-09-17T09:56:13.292Z,22.00
2023-09-17T09:58:40.585Z,23.00
2023-09-17T10:01:07.693Z,22.65
2023-09-17T10:03:35.004Z,24.15
2023-09-17T10:06:07.928Z,19.92
2023-09-17T10:08:37.678Z,24.30
2023-09-17T10:11:06.363Z,25.15
2023-09-17T10:13:34.242Z,24.95
2023-09-17T10:16:02.704Z,23.42
2023-09-17T10:18:31.315Z,23.30
2023-09-17T10:20:58.062Z,26.23
2023-09-17T10:23:25.393Z,24.38
2023-09-17T10:25:53.699Z,24.90
2023-09-17T10:28:27.409Z,23.90
2023-09-17T10:30:56.298Z,27.35
2023-09-17T10:33:24.470Z,22.67
2023-09-17T10:35:52.219Z,22.23
2023-09-17T10:38:23.767Z,28.92
2023-09-17T10:40:51.577Z,28.67
2023-09-17T10:43:18.508Z,27.27
2023-09-17T10:45:45.895Z,27.77
2023-09-17T10:48:13.442Z,25.35
2023-09-17T10:50:42.019Z,29.95
2023-09-17T10:53:08.519Z,29.75
2023-09-17T10:55:41.795Z,27.33
2023-09-17T10:58:16.761Z,31.20
2023-09-17T11:00:45.753Z,33.67
2023-09-17T11:03:17.522Z,33.17
2023-09-17T11:05:45.156Z,32.67
2023-09-17T11:08:12.773Z,33.53
2023-09-17T11:10:43.375Z,31.80
2023-09-17T11:13:14.018Z,34.00
2023-09-17T11:15:42.754Z,36.80
2023-09-17T11:18:09.902Z,37.50
2023-09-17T11:20:39.448Z,38.28
2023-09-17T11:23:06.184Z,38.90
2023-09-17T11:25:38.148Z,43.58
2023-09-17T11:28:12.921Z,37.15
2023-09-17T11:31:03.997Z,40.15
2023-09-17T11:33:37.357Z,43.78
2023-09-17T11:36:05.465Z,42.90
2023-09-17T11:38:32.474Z,44.38
2023-09-17T11:41:04.107Z,41.92
2023-09-17T11:43:31.318Z,42.50
2023-09-17T11:45:59.052Z,40.97
2023-09-17T11:48:27.366Z,45.20
2023-09-17T11:51:29.553Z,44.67
2023-09-17T11:54:04.362Z,39.65
2023-09-17T11:56:33.256Z,43.42
2023-09-17T11:59:05.258Z,42.42
2023-09-17T12:01:43.392Z,39.93
2023-09-17T12:04:11.340Z,44.95
2023-09-17T12:06:49.699Z,42.08
2023-09-17T12:09:25.254Z,44.35
2023-09-17T12:11:51.948Z,37.92
2023-09-17T12:14:20.572Z,42.23
2023-09-17T12:16:51.735Z,42.15
2023-09-17T12:19:19.318Z,46.83
2023-09-17T12:21:51.983Z,44.88
2023-09-17T12:24:24.782Z,46.17
2023-09-17T12:27:24.559Z,44.60
2023-09-17T12:29:53.195Z,49.45
2023-09-17T12:32:22.738Z,49.08
2023-09-17T12:34:50.873Z,49.92
2023-09-17T12:37:18.426Z,53.38
2023-09-17T12:39:45.842Z,42.53
2023-09-17T12:42:12.281Z,47.38
2023-09-17T12:44:38.714Z,47.92
2023-09-17T12:47:09.859Z,40.30
2023-09-17T12:49:36.579Z,46.53
2023-09-17T12:52:03.783Z,45.17
2023-09-17T12:54:30.510Z,43.97
2023-09-17T12:56:57.909Z,49.47
2023-09-17T12:59:32.144Z,45.45
2023-09-17T13:02:00.840Z,51.47
2023-09-17T13:04:44.466Z,51.47
2023-09-17T13:07:22.323Z,47.83
2023-09-17T13:09:50.934Z,51.63
2023-09-17T13:12:19.198Z,50.13
2023-09-17T13:14:48.624Z,49.30
2023-09-17T13:17:19.335Z,55.53
2023-09-17T13:19:47.549Z,48.88
2023-09-17T13:22:18.700Z,46.90
2023-09-17T13:24:46.181Z,43.22
2023-09-17T13:27:17.447Z,43.70
2023-09-17T13:29:50.685Z,40.90
2023-09-17T13:32:19.049Z,41.25
2023-09-17T13:34:46.095Z,44.92
2023-09-17T13:37:16.190Z,43.33
2023-09-17T13:39:44.674Z,44.08
2023-09-17T13:42:11.586Z,45.60
2023-09-17T13:44:38.143Z,46.45
2023-09-17T13:47:08.147Z,45.78
2023-09-17T13:49:34.552Z,40.15
2023-09-17T13:52:01.062Z,40.17
2023-09-17T13:54:27.449Z,40.40
2023-09-17T13:56:53.827Z,47.10
2023-09-17T13:59:20.411Z,42.60
2023-09-17T14:01:47.159Z,46.03
2023-09-17T14:04:13.756Z,40.33
2023-09-17T14:06:40.236Z,40.13
2023-09-17T14:09:06.675Z,43.45
2023-09-17T14:11:33.157Z,42.05
2023-09-17T14:13:59.823Z,42.90
2023-09-17T14:16:27.739Z,41.13
2023-09-17T14:18:54.383Z,40.07
2023-09-17T14:21:20.891Z,38.45
2023-09-17T14:23:47.387Z,40.33
2023-09-17T14:26:13.812Z,43.97
2023-09-17T14:28:40.302Z,36.17
2023-09-17T14:31:06.970Z,40.80
2023-09-17T14:33:34.467Z,37.95
2023-09-17T14:36:01.549Z,37.83
2023-09-17T14:38:27.961Z,37.95
2023-09-17T14:40:54.540Z,37.70
2023-09-17T14:43:21.902Z,35.93
2023-09-17T14:45:48.316Z,39.67
2023-09-17T14:48:15.511Z,37.50
2023-09-17T14:50:42.045Z,39.50
2023-09-17T14:53:08.471Z,37.13
2023-09-17T14:55:34.925Z,32.33
2023-09-17T14:58:01.357Z,33.05
2023-09-17T15:00:27.849Z,37.80
2023-09-17T15:02:54.383Z,37.13
2023-09-17T15:05:22.506Z,37.58
2023-09-17T15:07:49.371Z,34.07
2023-09-17T15:10:15.809Z,31.85
2023-09-17T15:12:42.553Z,34.50
2023-09-17T15:15:09.353Z,33.67
2023-09-17T15:17:36.969Z,35.92
2023-09-17T15:20:05.479Z,31.17
2023-09-17T15:22:32.089Z,33.13
2023-09-17T15:24:58.464Z,32.97
2023-09-17T15:27:24.917Z,32.47
2023-09-17T15:29:51.318Z,34.28
2023-09-17T15:32:17.879Z,28.50
2023-09-17T15:34:45.573Z,31.98
2023-09-17T15:37:12.149Z,31.02
2023-09-17T15:39:39.380Z,35.15
2023-09-17T15:42:05.841Z,33.78
2023-09-17T15:44:32.392Z,29.10
2023-09-17T15:47:00.793Z,31.52
2023-09-17T15:49:27.193Z,30.70
2023-09-17T15:51:53.852Z,35.10
2023-09-17T15:54:20.271Z,32.42
2023-09-17T15:56:46.734Z,31.13
2023-09-17T15:59:13.194Z,28.42
2023-09-17T16:01:41.704Z,29.58
2023-09-17T16:04:08.452Z,29.83
2023-09-17T16:06:35.087Z,33.67
2023-09-17T16:09:01.490Z,30.80
2023-09-17T16:11:27.965Z,29.63
2023-09-17T16:13:54.543Z,31.35
2023-09-17T16:16:21.134Z,33.20
2023-09-17T16:18:47.598Z,32.88
2023-09-17T16:21:15.013Z,31.87
2023-09-17T16:23:41.396Z,28.05
2023-09-17T16:26:07.936Z,31.35
2023-09-17T16:28:34.411Z,34.20
2023-09-17T16:31:00.841Z,33.53
2023-09-17T16:33:27.332Z,29.53
2023-09-17T16:35:54.981Z,31.80
2023-09-17T16:38:21.472Z,28.52
2023-09-17T16:40:48.374Z,32.63
2023-09-17T16:43:15.952Z,30.25
2023-09-17T16:45:43.709Z,29.37
2023-09-17T16:48:11.445Z,32.85
2023-09-17T16:50:37.917Z,30.80
2023-09-17T16:53:04.642Z,29.80
2023-09-17T16:55:31.066Z,31.88
2023-09-17T16:57:57.550Z,29.37
2023-09-17T17:00:24.930Z,32.17
2023-09-17T17:02:51.630Z,34.58
2023-09-17T17:05:19.504Z,35.28
2023-09-17T17:07:46.146Z,33.42
2023-09-17T17:10:12.993Z,31.90
2023-09-17T17:12:39.406Z,22.73
2023-09-17T17:15:08.109Z,26.88
2023-09-17T17:17:35.143Z,34.10
2023-09-17T17:20:01.591Z,31.45
2023-09-17T17:22:41.948Z,39.63
2023-09-17T17:25:11.962Z,33.58
2023-09-17T17:27:39.062Z,29.88
2023-09-17T17:30:07.851Z,33.83
2023-09-17T17:32:34.372Z,33.58
2023-09-17T17:35:00.918Z,29.97
2023-09-17T17:37:27.530Z,34.10
2023-09-17T17:39:58.358Z,35.78
2023-09-17T17:42:25.174Z,28.55
2023-09-17T17:44:51.636Z,32.63
2023-09-17T17:47:18.031Z,31.27
2023-09-17T17:49:44.530Z,29.67
2023-09-17T17:52:10.944Z,32.70
2023-09-17T17:54:37.330Z,27.45
2023-09-17T17:57:05.935Z,32.00
2023-09-17T17:59:32.414Z,29.80
2023-09-17T18:01:58.944Z,27.05
2023-09-17T18:04:25.424Z,30.35
2023-09-17T18:06:57.381Z,29.25
2023-09-17T18:09:23.895Z,29.25
2023-09-17T18:11:50.434Z,25.53
2023-09-17T18:14:17.026Z,26.40
2023-09-17T18:16:43.565Z,23.42
2023-09-17T18:19:10.291Z,23.17
2023-09-17T18:21:36.818Z,30.45
2023-09-17T18:24:03.573Z,24.53
2023-09-17T18:26:29.969Z,31.73
2023-09-17T18:28:58.349Z,32.95
2023-09-17T18:31:24.811Z,28.48
2023-09-17T18:33:51.376Z,31.52
2023-09-17T18:36:18.129Z,23.50
2023-09-17T18:38:45.244Z,26.98
2023-09-17T18:41:11.732Z,15.25
2023-09-17T18:43:38.538Z,17.60
2023-09-17T18:46:06.088Z,18.00
2023-09-17T18:48:32.536Z,18.03
2023-09-17T18:50:59.017Z,24.17
2023-09-17T18:53:25.410Z,21.10
2023-09-17T18:55:52.769Z,23.48
2023-09-17T18:58:19.233Z,24.30
2023-09-17T19:00:45.835Z,20.47
2023-09-17T19:03:12.914Z,20.23
2023-09-17T19:05:40.791Z,25.10
2023-09-17T19:08:07.548Z,21.90
2023-09-17T19:10:34.389Z,23.80
2023-09-17T19:13:01.226Z,25.47
2023-09-17T19:15:27.624Z,23.00
2023-09-17T19:17:54.031Z,22.55
2023-09-17T19:20:20.513Z,21.23
2023-09-17T19:22:46.949Z,23.65
2023-09-17T19:25:14.890Z,20.90
2023-09-17T19:27:41.791Z,18.33
2023-09-17T19:30:08.631Z,24.80
2023-09-17T19:32:35.190Z,14.00
2023-09-17T19:35:01.840Z,20.08
2023-09-17T19:37:28.306Z,15.40
2023-09-17T19:39:54.728Z,14.52
2023-09-17T19:42:21.569Z,18.90
2023-09-17T19:44:48.045Z,11.27
2023-09-17T19:47:14.491Z,9.48
2023-09-17T19:49:42.191Z,24.30
2023-09-17T19:52:12.690Z,14.77
2023-09-17T19:54:44.939Z,11.55
2023-09-17T19:57:11.804Z,10.13
2023-09-17T19:59:38.267Z,7.35
2023-09-17T20:02:04.938Z,26.63
2023-09-17T20:04:31.644Z,15.23
2023-09-17T20:07:00.073Z,25.80
2023-09-17T20:09:26.650Z,15.18
2023-09-17T20:11:54.289Z,14.15
2023-09-17T20:14:20.710Z,13.13
2023-09-17T20:16:47.232Z,14.50
2023-09-17T20:19:13.702Z,14.07
2023-09-17T20:21:40.726Z,12.88
2023-09-17T20:24:07.756Z,12.93
2023-09-17T20:26:37.167Z,10.50
2023-09-17T20:29:06.773Z,10.38
2023-09-17T20:31:33.495Z,13.13
2023-09-17T20:34:00.707Z,9.82
2023-09-17T20:36:27.070Z,14.48
2023-09-17T20:38:57.661Z,13.03
2023-09-17T20:41:24.779Z,12.52
2023-09-17T20:43:51.196Z,14.52
2023-09-17T20:46:18.429Z,48.60
2023-09-17T20:48:44.847Z,21.02
2023-09-17T20:51:11.221Z,7.47
2023-09-17T20:53:37.675Z,6.70
2023-09-17T20:56:05.125Z,16.77
2023-09-17T20:58:31.614Z,9.98
2023-09-17T21:00:58.167Z,26.85
2023-09-17T21:03:24.636Z,8.67
2023-09-17T21:05:51.125Z,13.15
2023-09-17T21:08:17.687Z,8.90
2023-09-17T21:10:44.501Z,6.00
2023-09-17T21:13:11.967Z,9.38
2023-09-17T21:15:39.119Z,10.10
2023-09-17T21:18:06.015Z,10.10
2023-09-17T21:20:32.978Z,11.95
2023-09-17T21:22:59.670Z,14.15
2023-09-17T21:25:26.329Z,13.23
2023-09-17T21:27:52.862Z,23.53
2023-09-17T21:30:19.490Z,22.70
2023-09-17T21:32:46.284Z,21.42
2023-09-17T21:35:13.337Z,33.42
2023-09-17T21:37:40.150Z,20.00
2023-09-17T21:40:07.060Z,22.03
2023-09-17T21:42:36.258Z,15.75
2023-09-17T21:45:03.493Z,15.75
2023-09-17T21:47:30.135Z,9.07
2023-09-17T21:50:00.532Z,28.60
2023-09-17T21:52:29.671Z,10.93
2023-09-17T21:54:56.855Z,11.70
2023-09-17T21:57:23.991Z,13.63
2023-09-17T21:59:51.124Z,12.60
2023-09-17T22:02:17.921Z,15.68
2023-09-17T22:04:45.370Z,15.20
2023-09-17T22:07:11.941Z,17.13
2023-09-17T22:09:39.905Z,13.75
2023-09-17T22:12:07.892Z,13.07
2023-09-17T22:14:35.794Z,16.95
2023-09-17T22:17:03.355Z,13.40
2023-09-17T22:19:30.742Z,11.40
2023-09-17T22:21:57.273Z,13.30
2023-09-17T22:24:24.901Z,12.50
2023-09-17T22:26:51.636Z,20.77
2023-09-17T22:29:18.564Z,11.00
2023-09-17T22:31:45.037Z,14.65
2023-09-17T22:34:11.536Z,8.75
2023-09-17T22:36:37.995Z,8.25
2023-09-17T22:39:04.904Z,16.63
2023-09-17T22:41:31.774Z,8.70
2023-09-17T22:44:11.846Z,30.73
2023-09-17T22:46:45.777Z,22.95
2023-09-17T22:49:13.624Z,9.68
2023-09-17T22:51:40.033Z,19.42
2023-09-17T22:54:06.415Z,20.90
2023-09-17T22:56:33.533Z,9.77
2023-09-17T22:59:00.145Z,11.15
2023-09-17T23:01:26.786Z,13.13
2023-09-17T23:03:53.273Z,14.30
2023-09-17T23:06:19.628Z,11.70
2023-09-17T23:08:46.064Z,10.57
2023-09-17T23:11:13.292Z,13.40
2023-09-17T23:13:41.184Z,11.10
2023-09-17T23:16:08.222Z,12.60
2023-09-17T23:18:34.989Z,10.97
2023-09-17T23:21:04.444Z,9.73
2023-09-17T23:23:30.890Z,16.58
2023-09-17T23:25:57.457Z,13.68
2023-09-17T23:28:32.964Z,13.73
2023-09-17T23:31:21.538Z,15.20
2023-09-17T23:33:48.005Z,15.18
2023-09-17T23:36:14.475Z,21.17
2023-09-17T23:38:40.925Z,15.32
2023-09-17T23:41:09.460Z,16.15
2023-09-17T23:43:38.194Z,15.17
2023-09-17T23:46:05.600Z,14.55
2023-09-17T23:48:32.018Z,15.10
2023-09-17T23:50:58.613Z,12.48
2023-09-17T23:53:25.069Z,13.90
2023-09-17T23:55:51.521Z,16.07
2023-09-17T23:58:18.435Z,10.70
